Time;durP1;ratioP1;P1;durP2;ratioP2;P2;SDS_P1;SDS_P2;PMS_P1;PMS_P2;Temp;Humidity;BMP_temperature;BMP_pressure;BME280_temperature;BME280_humidity;BME280_pressure;Samples;Min_cycle;Max_cycle;Signal;HPM_P1;HPM_P2
2023/07/31 04:07:54;;;;;;;;;;;15.50;99.90;;;;;;5000805;28;20028;-81
2023/07/31 04:10:33;;;;;;;;;;;15.60;99.90;;;;;;4986081;28;20021;-80
2023/07/31 04:13:00;;;;;;;;;;;15.60;99.90;;;;;;4980219;28;19933;-80
2023/07/31 04:15:26;;;;;;;;;;;15.60;99.90;;;;;;4979767;28;19921;-77
2023/07/31 04:17:52;;;;;;;;;;;15.70;99.90;;;;;;4999758;28;19921;-81
2023/07/31 04:20:18;;;;;;;;;;;15.80;99.90;;;;;;5002782;28;19921;-83
2023/07/31 04:23:03;;;;;;;;;;;;;;;;;;;;;
2023/07/31 04:25:29;;;;;;;;;;;15.80;99.90;;;;;;4996942;28;20270;-83
2023/07/31 04:27:54;;;;;;;;;;;15.90;99.90;;;;;;4998311;28;19972;-79
2023/07/31 04:30:20;;;;;;;;;;;15.90;99.90;;;;;;4998117;28;20012;-80
2023/07/31 04:32:46;;;;;;;;;;;15.90;99.90;;;;;;4996167;28;19926;-79
2023/07/31 04:35:11;;;;;;;;;;;16.00;99.90;;;;;;4979928;28;19928;-79
2023/07/31 04:37:38;;;;;;;;;;;16.10;99.90;;;;;;4996534;28;19969;-82
2023/07/31 04:40:04;;;;;;;;;;;16.10;99.90;;;;;;4996955;28;20373;-84
2023/07/31 04:42:35;;;;;;;;;;;16.10;99.90;;;;;;4996503;28;20370;-84
2023/07/31 04:45:00;;;;;;;;;;;16.10;99.90;;;;;;4996442;28;20001;-81
2023/07/31 04:47:26;;;;;;;;;;;16.20;99.90;;;;;;4997585;28;19961;-83
2023/07/31 04:49:52;;;;;;;;;;;16.20;99.90;;;;;;4997983;28;19922;-85
2023/07/31 04:52:18;;;;;;;;;;;16.20;99.90;;;;;;4996489;28;19926;-80
2023/07/31 04:54:43;;;;;;;;;;;16.20;99.90;;;;;;4979796;28;20254;-81
2023/07/31 04:57:09;;;;;;;;;;;16.20;99.90;;;;;;4997119;28;19922;-83
2023/07/31 04:59:34;;;;;;;;;;;16.10;99.90;;;;;;4996604;28;20417;-82
2023/07/31 05:02:00;;;;;;;;;;;16.20;99.90;;;;;;4995662;28;19976;-83
2023/07/31 05:04:25;;;;;;;;;;;16.20;99.90;;;;;;4997452;28;20034;-83
2023/07/31 05:06:51;;;;;;;;;;;16.20;99.90;;;;;;4995727;28;19934;-82
2023/07/31 05:09:16;;;;;;;;;;;16.20;99.90;;;;;;4995752;28;19969;-82
2023/07/31 05:11:42;;;;;;;;;;;16.20;99.90;;;;;;4995709;28;19921;-81
2023/07/31 05:14:08;;;;;;;;;;;16.20;99.90;;;;;;4995889;28;19925;-83
2023/07/31 05:16:34;;;;;;;;;;;16.20;99.90;;;;;;4979711;28;19922;-78
2023/07/31 05:19:00;;;;;;;;;;;16.20;99.90;;;;;;4996998;28;20258;-82
2023/07/31 05:21:25;;;;;;;;;;;16.20;99.90;;;;;;4979338;28;20363;-82
2023/07/31 05:23:51;;;;;;;;;;;16.20;99.90;;;;;;4997083;28;19926;-82
2023/07/31 05:26:17;;;;;;;;;;;16.20;99.90;;;;;;4995675;28;20004;-82
2023/07/31 05:28:43;;;;;;;;;;;16.20;99.90;;;;;;4995403;28;19922;-81
2023/07/31 05:31:08;;;;;;;;;;;16.30;99.90;;;;;;4996519;28;20342;-82
2023/07/31 05:33:34;;;;;;;;;;;16.30;99.90;;;;;;4999131;28;20321;-86
2023/07/31 05:36:00;;;;;;;;;;;16.30;99.90;;;;;;4999049;28;19928;-82
2023/07/31 05:38:26;;;;;;;;;;;16.30;99.90;;;;;;4999075;28;19921;-80
2023/07/31 05:40:51;;;;;;;;;;;16.30;99.90;;;;;;4998525;28;20373;-82
2023/07/31 05:43:17;;;;;;;;;;;16.30;99.90;;;;;;4998427;28;19932;-80
2023/07/31 05:45:42;;;;;;;;;;;16.30;99.90;;;;;;4998883;28;19921;-82
2023/07/31 05:48:08;;;;;;;;;;;16.30;99.90;;;;;;5015805;28;19925;-79
2023/07/31 05:50:34;;;;;;;;;;;16.30;99.90;;;;;;4982515;28;20242;-83
2023/07/31 05:52:59;;;;;;;;;;;16.30;99.90;;;;;;4998694;28;19928;-81
2023/07/31 05:55:26;;;;;;;;;;;16.30;99.90;;;;;;4982046;28;20020;-81
2023/07/31 05:57:52;;;;;;;;;;;16.30;99.90;;;;;;4982565;28;19960;-82
2023/07/31 06:00:20;;;;;;;;;;;16.30;99.90;;;;;;5000945;28;19926;-81
2023/07/31 06:02:47;;;;;;;;;;;16.40;99.90;;;;;;4985815;28;19925;-81
2023/07/31 06:05:15;;;;;;;;;;;16.30;99.90;;;;;;5002775;28;19921;-82
2023/07/31 06:07:41;;;;;;;;;;;16.30;99.90;;;;;;4982721;28;19921;-82
2023/07/31 06:10:07;;;;;;;;;;;16.30;99.90;;;;;;4998259;28;19921;-83
2023/07/31 06:12:33;;;;;;;;;;;16.30;99.90;;;;;;5015421;28;19922;-83
2023/07/31 06:14:58;;;;;;;;;;;16.40;99.90;;;;;;5014964;28;20363;-84
2023/07/31 06:17:24;;;;;;;;;;;16.30;99.90;;;;;;5015691;28;19928;-84
2023/07/31 06:19:50;;;;;;;;;;;16.40;99.90;;;;;;5015628;28;19922;-82
2023/07/31 06:22:15;;;;;;;;;;;16.40;99.90;;;;;;4997917;28;19973;-82
2023/07/31 06:24:41;;;;;;;;;;;16.40;99.90;;;;;;5015602;28;20258;-81
2023/07/31 06:27:06;;;;;;;;;;;16.40;99.90;;;;;;5015531;28;19944;-83
2023/07/31 06:29:32;;;;;;;;;;;16.30;99.90;;;;;;4985345;28;20400;-82
2023/07/31 06:31:58;;;;;;;;;;;16.40;99.90;;;;;;4962396;28;19925;-81
2023/07/31 06:34:23;;;;;;;;;;;16.40;99.90;;;;;;4978326;28;19929;-80
2023/07/31 06:36:49;;;;;;;;;;;16.40;99.90;;;;;;4962132;28;19921;-81
2023/07/31 06:39:14;;;;;;;;;;;16.40;99.90;;;;;;4996173;28;19921;-83
2023/07/31 06:41:44;;;;;;;;;;;16.40;99.90;;;;;;4976982;28;19922;-84
2023/07/31 06:44:10;;;;;;;;;;;16.30;99.90;;;;;;4994084;28;20442;-85
2023/07/31 06:46:38;;;;;;;;;;;16.30;99.90;;;;;;4995627;28;19960;-82
2023/07/31 06:49:06;;;;;;;;;;;16.30;99.90;;;;;;4977280;28;19921;-84
2023/07/31 06:51:32;;;;;;;;;;;16.30;99.90;;;;;;4995703;28;19929;-82
2023/07/31 06:53:58;;;;;;;;;;;16.30;99.90;;;;;;4977607;28;19933;-83
2023/07/31 06:56:24;;;;;;;;;;;16.20;99.90;;;;;;4995202;28;19921;-77
2023/07/31 06:58:49;;;;;;;;;;;16.20;99.90;;;;;;4978783;28;19922;-84
2023/07/31 07:01:15;;;;;;;;;;;16.30;99.90;;;;;;5012018;28;19928;-83
2023/07/31 07:03:41;;;;;;;;;;;16.20;99.90;;;;;;4997309;28;19925;-86
2023/07/31 07:06:06;;;;;;;;;;;16.20;99.90;;;;;;4997494;28;19929;-80
2023/07/31 07:08:34;;;;;;;;;;;16.20;99.90;;;;;;5014424;28;19929;-79
2023/07/31 07:11:06;;;;;;;;;;;16.20;99.90;;;;;;4972868;28;19923;-78
2023/07/31 07:13:31;;;;;;;;;;;16.30;99.90;;;;;;4957317;28;19922;-80
2023/07/31 07:15:57;;;;;;;;;;;16.20;99.90;;;;;;4957658;28;19929;-81
2023/07/31 07:18:22;;;;;;;;;;;16.20;99.90;;;;;;4973333;28;20329;-81
2023/07/31 07:21:04;;;;;;;;;;;16.20;99.90;;;;;;4972872;28;19926;-82
2023/07/31 07:23:30;;;;;;;;;;;16.20;99.90;;;;;;4974055;28;19926;-80
2023/07/31 07:25:55;;;;;;;;;;;16.20;99.90;;;;;;4973157;28;20285;-82
2023/07/31 07:28:21;;;;;;;;;;;16.20;99.90;;;;;;4973111;28;19973;-82
2023/07/31 07:30:51;;;;;;;;;;;16.20;99.90;;;;;;4957067;28;19973;-84
2023/07/31 07:33:30;;;;;;;;;;;16.20;99.90;;;;;;4957047;28;19923;-78
2023/07/31 07:36:02;;;;;;;;;;;16.20;99.90;;;;;;4973583;28;19925;-81
2023/07/31 07:38:27;;;;;;;;;;;16.20;99.90;;;;;;4996602;28;20004;-81
2023/07/31 07:40:53;;;;;;;;;;;16.20;99.90;;;;;;5014184;28;20001;-82
2023/07/31 07:43:19;;;;;;;;;;;16.20;99.90;;;;;;5014460;28;19926;-82
2023/07/31 07:45:44;;;;;;;;;;;16.30;99.90;;;;;;4996474;28;20340;-83
2023/07/31 07:48:10;;;;;;;;;;;16.30;99.90;;;;;;4997381;28;19921;-83
2023/07/31 07:50:38;;;;;;;;;;;16.30;99.90;;;;;;5014304;28;19921;-83
2023/07/31 07:53:03;;;;;;;;;;;16.30;99.90;;;;;;4998914;28;19944;-83
2023/07/31 07:55:29;;;;;;;;;;;16.30;99.90;;;;;;5000868;28;20365;-82
2023/07/31 07:57:54;;;;;;;;;;;16.40;99.90;;;;;;5000879;28;19983;-82
2023/07/31 08:00:20;;;;;;;;;;;16.40;99.90;;;;;;5018752;28;19971;-82
2023/07/31 08:02:45;;;;;;;;;;;16.40;99.90;;;;;;5018591;28;20281;-83
2023/07/31 08:05:14;;;;;;;;;;;16.30;99.90;;;;;;5001147;28;20022;-84
2023/07/31 08:07:42;;;;;;;;;;;16.30;99.90;;;;;;5000684;28;19929;-81
2023/07/31 08:10:08;;;;;;;;;;;16.40;99.90;;;;;;4991782;28;19926;-84
2023/07/31 08:12:33;;;;;;;;;;;16.40;99.90;;;;;;4998847;28;19928;-83
2023/07/31 08:15:00;;;;;;;;;;;16.40;99.90;;;;;;4981346;28;19922;-78
2023/07/31 08:17:25;;;;;;;;;;;16.40;99.90;;;;;;4981380;28;19935;-82
2023/07/31 08:19:51;;;;;;;;;;;16.40;99.90;;;;;;4980509;28;19968;-79
2023/07/31 08:22:17;;;;;;;;;;;16.40;99.90;;;;;;4997974;28;19925;-82
2023/07/31 08:24:42;;;;;;;;;;;16.40;99.90;;;;;;4999004;28;19922;-86
2023/07/31 08:27:08;;;;;;;;;;;16.50;99.90;;;;;;4980953;28;20012;-84
2023/07/31 08:29:33;;;;;;;;;;;16.50;99.90;;;;;;4981219;28;20354;-81
2023/07/31 08:31:59;;;;;;;;;;;16.50;99.90;;;;;;4998064;28;19922;-85
2023/07/31 08:34:24;;;;;;;;;;;16.50;99.90;;;;;;4980610;28;19968;-81
2023/07/31 08:36:50;;;;;;;;;;;16.50;99.90;;;;;;4998156;28;19922;-81
2023/07/31 08:39:16;;;;;;;;;;;16.50;99.90;;;;;;4997609;28;19921;-78
2023/07/31 08:41:41;;;;;;;;;;;16.60;99.90;;;;;;4997695;28;19921;-80
2023/07/31 08:44:07;;;;;;;;;;;16.60;99.90;;;;;;4981386;28;19926;-79
2023/07/31 08:46:33;;;;;;;;;;;16.60;99.90;;;;;;4997319;28;19921;-79
2023/07/31 08:49:00;;;;;;;;;;;16.60;99.90;;;;;;4997344;28;19921;-78
2023/07/31 08:51:25;;;;;;;;;;;16.70;99.90;;;;;;4980400;28;20327;-78
2023/07/31 08:53:52;;;;;;;;;;;16.70;99.90;;;;;;4979948;28;19949;-79
2023/07/31 08:56:18;;;;;;;;;;;16.80;99.90;;;;;;4979518;28;19949;-77
2023/07/31 08:58:45;;;;;;;;;;;16.70;99.90;;;;;;4997047;28;19928;-76
2023/07/31 09:01:11;;;;;;;;;;;16.70;99.90;;;;;;4979459;28;19922;-78
2023/07/31 09:03:38;;;;;;;;;;;16.70;99.90;;;;;;4979478;28;19925;-76
2023/07/31 09:06:06;;;;;;;;;;;16.70;99.90;;;;;;4978879;28;20012;-82
2023/07/31 09:08:32;;;;;;;;;;;16.70;99.90;;;;;;4996842;28;19972;-77
2023/07/31 09:11:03;;;;;;;;;;;16.80;99.90;;;;;;4979410;28;19922;-78
2023/07/31 09:13:29;;;;;;;;;;;16.80;99.90;;;;;;4979702;28;19926;-76
2023/07/31 09:15:55;;;;;;;;;;;16.80;99.90;;;;;;4996687;28;19922;-78
2023/07/31 09:18:22;;;;;;;;;;;16.80;99.90;;;;;;4979179;28;19929;-82
2023/07/31 09:21:00;;;;;;;;;;;16.80;99.90;;;;;;4979548;28;20436;-80
2023/07/31 09:23:26;;;;;;;;;;;16.80;99.90;;;;;;4979296;28;20075;-78
2023/07/31 09:25:51;;;;;;;;;;;16.90;99.90;;;;;;4979412;28;19926;-80
2023/07/31 09:28:17;;;;;;;;;;;17.00;99.90;;;;;;4979108;28;19922;-79
2023/07/31 09:30:47;;;;;;;;;;;17.00;99.90;;;;;;4978869;28;19929;-79
2023/07/31 09:33:13;;;;;;;;;;;17.10;99.90;;;;;;4996622;28;19948;-82
2023/07/31 09:35:40;;;;;;;;;;;17.20;99.90;;;;;;4979657;28;19926;-82
2023/07/31 09:38:08;;;;;;;;;;;17.20;99.90;;;;;;4979284;28;20348;-81
2023/07/31 09:40:35;;;;;;;;;;;17.20;99.90;;;;;;4978752;28;19950;-77
2023/07/31 09:43:01;;;;;;;;;;;17.20;99.90;;;;;;4979429;28;19926;-82
2023/07/31 09:45:27;;;;;;;;;;;17.20;99.90;;;;;;4978723;28;20340;-80
2023/07/31 09:47:53;;;;;;;;;;;17.20;99.90;;;;;;4996200;28;19921;-81
2023/07/31 09:50:24;;;;;;;;;;;17.30;99.90;;;;;;4978639;28;19922;-81
2023/07/31 09:52:50;;;;;;;;;;;17.30;99.90;;;;;;4978793;28;19929;-84
2023/07/31 09:55:16;;;;;;;;;;;17.30;99.90;;;;;;4979379;28;20361;-84
2023/07/31 09:57:45;;;;;;;;;;;17.40;99.90;;;;;;4962772;28;19922;-82
2023/07/31 10:00:11;;;;;;;;;;;17.30;99.90;;;;;;4978580;28;19922;-80
2023/07/31 10:02:38;;;;;;;;;;;17.40;99.90;;;;;;4979024;28;20381;-81
2023/07/31 10:05:04;;;;;;;;;;;17.40;99.90;;;;;;4996260;28;19929;-80
2023/07/31 10:07:36;;;;;;;;;;;17.40;99.90;;;;;;4979004;28;19965;-79
2023/07/31 10:10:03;;;;;;;;;;;17.40;99.90;;;;;;4995679;28;20377;-82
2023/07/31 10:12:29;;;;;;;;;;;17.50;99.90;;;;;;4978241;28;19922;-80
2023/07/31 10:14:55;;;;;;;;;;;17.50;99.90;;;;;;4996002;28;19944;-81
2023/07/31 10:17:24;;;;;;;;;;;17.60;99.90;;;;;;4978060;28;19928;-82
2023/07/31 10:19:49;;;;;;;;;;;17.60;99.90;;;;;;4978200;28;20338;-80
2023/07/31 10:22:15;;;;;;;;;;;17.70;99.90;;;;;;4978393;28;19933;-81
2023/07/31 10:24:48;;;;;;;;;;;17.70;99.90;;;;;;4978002;28;20373;-81
2023/07/31 10:27:14;;;;;;;;;;;17.90;99.90;;;;;;4996105;28;19961;-80
2023/07/31 10:29:40;;;;;;;;;;;18.00;99.90;;;;;;4977962;28;19944;-83
2023/07/31 10:32:10;;;;;;;;;;;18.10;99.90;;;;;;4978642;28;19957;-82
2023/07/31 10:34:36;;;;;;;;;;;18.20;99.90;;;;;;4978230;28;19964;-85
2023/07/31 10:37:23;;;;;;;;;;;18.20;99.90;;;;;;4995734;28;20368;-80
2023/07/31 10:40:21;;;;;;;;;;;18.30;99.90;;;;;;4995421;28;20432;-77
2023/07/31 10:42:49;;;;;;;;;;;18.30;99.90;;;;;;4970304;28;19980;-83
2023/07/31 10:45:26;;;;;;;;;;;18.30;99.90;;;;;;4978428;28;19988;-83
2023/07/31 10:47:57;;;;;;;;;;;18.20;99.90;;;;;;4995036;28;19973;-80
2023/07/31 10:50:26;;;;;;;;;;;18.30;99.90;;;;;;4994159;28;19972;-81
2023/07/31 10:52:53;;;;;;;;;;;18.30;99.90;;;;;;5014563;28;19932;-78
2023/07/31 10:55:25;;;;;;;;;;;18.30;99.90;;;;;;4997552;28;19933;-84
2023/07/31 10:57:51;;;;;;;;;;;18.30;99.90;;;;;;4996960;28;19921;-82
2023/07/31 11:00:23;;;;;;;;;;;18.30;99.90;;;;;;5014585;28;19928;-85
2023/07/31 11:02:58;;;;;;;;;;;18.30;99.90;;;;;;5014329;28;20023;-82
2023/07/31 11:05:53;;;;;;;;;;;18.20;99.90;;;;;;4996712;28;19921;-81
2023/07/31 11:08:19;;;;;;;;;;;18.20;99.90;;;;;;5019156;28;19926;-84
2023/07/31 11:10:45;;;;;;;;;;;18.10;99.90;;;;;;4988603;28;19984;-82
2023/07/31 11:13:11;;;;;;;;;;;18.10;99.90;;;;;;5020863;28;19925;-81
2023/07/31 11:15:36;;;;;;;;;;;18.10;99.90;;;;;;4998049;28;19922;-84
2023/07/31 11:18:05;;;;;;;;;;;18.10;99.90;;;;;;4997169;28;19922;-81
2023/07/31 11:20:35;;;;;;;;;;;18.00;99.90;;;;;;5014747;28;20281;-81
2023/07/31 11:23:02;;;;;;;;;;;18.00;99.90;;;;;;4996808;28;19968;-83
2023/07/31 11:25:31;;;;;;;;;;;17.90;99.90;;;;;;4996820;28;20293;-80
2023/07/31 11:27:57;;;;;;;;;;;17.90;99.90;;;;;;5013966;28;19921;-80
2023/07/31 11:30:26;;;;;;;;;;;17.90;99.90;;;;;;5013902;28;20399;-82
2023/07/31 11:32:51;;;;;;;;;;;17.90;99.90;;;;;;4996555;28;19925;-84
2023/07/31 11:35:17;;;;;;;;;;;17.90;99.90;;;;;;4980349;28;19921;-85
2023/07/31 11:37:43;;;;;;;;;;;17.80;99.90;;;;;;4996508;28;20289;-83
2023/07/31 11:40:09;;;;;;;;;;;17.80;99.90;;;;;;4996549;28;20335;-81
2023/07/31 11:42:36;;;;;;;;;;;17.70;99.90;;;;;;4996815;28;20405;-82
2023/07/31 11:45:02;;;;;;;;;;;17.70;99.90;;;;;;4996646;28;20230;-81
2023/07/31 11:47:28;;;;;;;;;;;17.60;99.90;;;;;;4996684;28;20202;-82
2023/07/31 11:49:53;;;;;;;;;;;17.60;99.90;;;;;;5014113;28;20377;-81
2023/07/31 11:52:23;;;;;;;;;;;17.60;99.90;;;;;;5013834;28;19922;-83
2023/07/31 11:54:49;;;;;;;;;;;17.70;99.90;;;;;;4996883;28;20020;-81
2023/07/31 11:57:15;;;;;;;;;;;17.80;99.90;;;;;;4980016;28;20027;-83
2023/07/31 11:59:41;;;;;;;;;;;17.80;99.90;;;;;;4996766;28;19925;-84
2023/07/31 12:02:07;;;;;;;;;;;17.90;99.90;;;;;;5014080;28;20012;-82
2023/07/31 12:04:32;;;;;;;;;;;17.90;99.90;;;;;;4996370;28;19969;-83
2023/07/31 12:07:00;;;;;;;;;;;18.00;99.90;;;;;;5013983;28;19933;-83
2023/07/31 12:09:26;;;;;;;;;;;18.00;99.90;;;;;;5014439;28;20254;-83
2023/07/31 12:11:51;;;;;;;;;;;18.00;99.90;;;;;;5013810;28;19972;-84
2023/07/31 12:14:21;;;;;;;;;;;18.00;99.90;;;;;;4996425;28;19969;-84
2023/07/31 12:16:46;;;;;;;;;;;18.00;99.90;;;;;;4980669;28;20064;-80
2023/07/31 12:19:12;;;;;;;;;;;18.00;99.90;;;;;;4996522;28;19957;-82
2023/07/31 12:21:37;;;;;;;;;;;18.00;99.90;;;;;;5014034;28;20396;-82
2023/07/31 12:24:03;;;;;;;;;;;17.90;99.90;;;;;;5014386;28;19949;-83
2023/07/31 12:26:34;;;;;;;;;;;18.00;99.90;;;;;;4996414;28;19996;-82
2023/07/31 12:28:59;;;;;;;;;;;17.90;99.90;;;;;;4996198;28;19921;-82
2023/07/31 12:31:27;;;;;;;;;;;17.90;99.90;;;;;;5013934;28;20033;-82
2023/07/31 12:33:52;;;;;;;;;;;17.90;99.90;;;;;;5013735;28;20476;-83
2023/07/31 12:36:20;;;;;;;;;;;17.90;99.90;;;;;;4996335;28;19929;-81
2023/07/31 12:38:46;;;;;;;;;;;18.00;99.90;;;;;;5013907;28;19921;-80
2023/07/31 12:41:12;;;;;;;;;;;18.10;99.90;;;;;;4999087;28;19921;-82
2023/07/31 12:43:38;;;;;;;;;;;18.20;99.90;;;;;;4999804;28;20349;-83
2023/07/31 12:46:04;;;;;;;;;;;18.50;99.90;;;;;;4999409;28;20008;-84
2023/07/31 12:48:31;;;;;;;;;;;18.60;99.90;;;;;;5017094;28;20000;-81
2023/07/31 12:50:56;;;;;;;;;;;18.70;99.90;;;;;;5017194;28;19991;-82
2023/07/31 12:53:22;;;;;;;;;;;18.80;99.90;;;;;;5016825;28;20369;-82
2023/07/31 12:55:47;;;;;;;;;;;18.80;99.90;;;;;;5017233;28;20289;-82
2023/07/31 12:58:13;;;;;;;;;;;18.80;99.90;;;;;;5016775;28;20280;-81
2023/07/31 13:00:38;;;;;;;;;;;18.80;99.90;;;;;;5016806;28;19921;-80
2023/07/31 13:03:04;;;;;;;;;;;18.80;99.90;;;;;;5016656;28;19976;-84
2023/07/31 13:05:30;;;;;;;;;;;18.80;99.90;;;;;;5016650;28;19972;-82
2023/07/31 13:07:56;;;;;;;;;;;18.70;99.90;;;;;;5016665;28;19925;-82
2023/07/31 13:10:22;;;;;;;;;;;18.60;99.90;;;;;;4999187;28;19937;-83
2023/07/31 13:12:47;;;;;;;;;;;18.60;99.90;;;;;;4999192;28;19979;-81
2023/07/31 13:15:13;;;;;;;;;;;18.60;99.90;;;;;;4999698;28;19925;-83
2023/07/31 13:17:39;;;;;;;;;;;18.60;99.90;;;;;;5016647;28;19933;-81
2023/07/31 13:20:05;;;;;;;;;;;18.60;99.90;;;;;;5016194;28;20390;-80
2023/07/31 13:22:30;;;;;;;;;;;18.70;99.90;;;;;;4998422;28;20047;-80
2023/07/31 13:24:56;;;;;;;;;;;18.70;99.90;;;;;;5016362;28;20283;-82
2023/07/31 13:27:21;;;;;;;;;;;18.70;99.90;;;;;;4998496;28;19926;-80
2023/07/31 13:29:50;;;;;;;;;;;18.60;99.90;;;;;;4998828;28;19928;-81
2023/07/31 13:32:16;;;;;;;;;;;18.70;99.90;;;;;;4998632;28;20297;-81
2023/07/31 13:34:42;;;;;;;;;;;18.70;99.90;;;;;;5016547;28;19921;-81
2023/07/31 13:37:07;;;;;;;;;;;18.80;99.90;;;;;;4998715;28;20483;-81
2023/07/31 13:39:34;;;;;;;;;;;18.80;99.90;;;;;;5016032;28;19921;-79
2023/07/31 13:41:59;;;;;;;;;;;18.80;99.90;;;;;;4982375;28;19922;-78
2023/07/31 13:44:25;;;;;;;;;;;18.90;99.90;;;;;;4998432;28;20015;-78
2023/07/31 13:46:51;;;;;;;;;;;18.90;99.90;;;;;;4997579;28;19922;-79
2023/07/31 13:49:17;;;;;;;;;;;18.80;99.90;;;;;;4998167;28;19968;-80
2023/07/31 13:51:43;;;;;;;;;;;18.80;99.90;;;;;;4998144;28;19921;-81
2023/07/31 13:54:09;;;;;;;;;;;18.80;99.90;;;;;;5015381;28;19926;-79
2023/07/31 13:56:34;;;;;;;;;;;18.80;99.90;;;;;;5015621;28;20028;-81
2023/07/31 13:59:01;;;;;;;;;;;18.80;99.90;;;;;;4997893;28;19921;-82
2023/07/31 14:01:27;;;;;;;;;;;18.90;99.90;;;;;;4997816;28;19921;-79
2023/07/31 14:03:53;;;;;;;;;;;18.90;99.90;;;;;;4997870;28;19926;-80
2023/07/31 14:06:19;;;;;;;;;;;18.80;99.90;;;;;;4997858;28;20301;-80
2023/07/31 14:08:44;;;;;;;;;;;18.90;99.90;;;;;;4998348;28;19949;-80
2023/07/31 14:11:10;;;;;;;;;;;18.90;99.90;;;;;;5015659;28;19921;-81
2023/07/31 14:13:36;;;;;;;;;;;18.90;99.90;;;;;;4998773;28;20312;-79
2023/07/31 14:16:01;;;;;;;;;;;18.90;99.90;;;;;;5016136;28;19921;-80
2023/07/31 14:18:27;;;;;;;;;;;19.00;99.90;;;;;;5015744;28;19972;-83
2023/07/31 14:20:52;;;;;;;;;;;19.00;99.90;;;;;;4997718;28;19922;-82
2023/07/31 14:23:19;;;;;;;;;;;19.10;99.90;;;;;;5015588;28;19934;-79
2023/07/31 14:25:45;;;;;;;;;;;19.10;99.90;;;;;;4997954;28;19972;-78
2023/07/31 14:28:11;;;;;;;;;;;19.10;99.90;;;;;;4997775;28;19928;-78
2023/07/31 14:30:36;;;;;;;;;;;19.10;99.90;;;;;;4997760;28;20285;-81
2023/07/31 14:33:02;;;;;;;;;;;19.10;99.90;;;;;;4997534;28;20412;-78
2023/07/31 14:35:28;;;;;;;;;;;19.10;99.90;;;;;;5016055;28;19947;-82
2023/07/31 14:37:54;;;;;;;;;;;19.10;99.90;;;;;;5015058;28;19927;-80
2023/07/31 14:40:19;;;;;;;;;;;19.10;99.90;;;;;;5014621;28;19951;-79
2023/07/31 14:42:45;;;;;;;;;;;19.10;99.90;;;;;;4981017;28;19976;-83
2023/07/31 14:45:11;;;;;;;;;;;19.00;99.90;;;;;;4998279;28;19921;-79
2023/07/31 14:47:36;;;;;;;;;;;19.00;99.90;;;;;;5014931;28;19972;-81
2023/07/31 14:50:02;;;;;;;;;;;19.00;99.90;;;;;;4997519;28;19928;-80
2023/07/31 14:52:28;;;;;;;;;;;18.90;99.90;;;;;;5014885;28;19929;-81
2023/07/31 14:54:54;;;;;;;;;;;18.90;99.90;;;;;;5014922;28;20373;-80
2023/07/31 14:57:20;;;;;;;;;;;18.90;99.90;;;;;;4997218;28;19922;-82
2023/07/31 14:59:46;;;;;;;;;;;18.90;99.90;;;;;;4998140;28;19933;-83
2023/07/31 15:02:12;;;;;;;;;;;18.80;99.90;;;;;;4996031;28;20285;-80
2023/07/31 15:04:38;;;;;;;;;;;18.80;99.90;;;;;;5014617;28;20385;-78
2023/07/31 15:07:03;;;;;;;;;;;18.80;99.90;;;;;;5014684;28;19922;-79
2023/07/31 15:09:29;;;;;;;;;;;18.80;99.90;;;;;;5014818;28;19921;-80
2023/07/31 15:11:55;;;;;;;;;;;18.80;99.90;;;;;;5014314;28;19921;-81
2023/07/31 15:14:21;;;;;;;;;;;18.80;99.90;;;;;;5014942;28;20060;-80
2023/07/31 15:16:47;;;;;;;;;;;18.90;99.90;;;;;;4997164;28;20393;-81
2023/07/31 15:19:12;;;;;;;;;;;18.90;99.90;;;;;;5014776;28;20235;-80
2023/07/31 15:21:40;;;;;;;;;;;18.90;99.90;;;;;;5013698;28;20622;-80
2023/07/31 15:24:06;;;;;;;;;;;18.80;99.90;;;;;;4997219;28;20004;-79
2023/07/31 15:26:31;;;;;;;;;;;18.90;99.90;;;;;;4997010;28;19943;-80
2023/07/31 15:29:08;;;;;;;;;;;18.80;99.90;;;;;;5014111;28;20421;-79
2023/07/31 15:31:36;;;;;;;;;;;18.80;99.90;;;;;;4980540;28;19925;-80
2023/07/31 15:34:02;;;;;;;;;;;18.80;99.90;;;;;;4996800;28;19922;-77
2023/07/31 15:36:27;;;;;;;;;;;18.80;99.90;;;;;;5014571;28;19929;-81
2023/07/31 15:38:53;;;;;;;;;;;18.80;99.90;;;;;;4996755;28;19922;-79
2023/07/31 15:41:18;;;;;;;;;;;18.80;99.90;;;;;;5013879;28;19936;-81
2023/07/31 15:43:44;;;;;;;;;;;18.80;99.90;;;;;;4996370;28;19928;-79
2023/07/31 15:46:10;;;;;;;;;;;18.80;99.90;;;;;;5014360;28;19972;-81
2023/07/31 15:48:36;;;;;;;;;;;18.80;99.90;;;;;;5014381;28;20004;-80
2023/07/31 15:51:03;;;;;;;;;;;18.80;99.90;;;;;;4996761;28;19943;-79
2023/07/31 15:53:28;;;;;;;;;;;18.80;99.90;;;;;;4996422;28;20059;-80
2023/07/31 15:55:54;;;;;;;;;;;18.80;99.90;;;;;;5014272;28;19975;-81
2023/07/31 15:58:20;;;;;;;;;;;18.70;99.90;;;;;;4996456;28;19929;-82
2023/07/31 16:00:46;;;;;;;;;;;18.80;99.90;;;;;;5014076;28;19932;-80
2023/07/31 16:03:11;;;;;;;;;;;18.70;99.90;;;;;;4996239;28;19926;-79
2023/07/31 16:05:37;;;;;;;;;;;18.60;99.90;;;;;;4996259;28;20012;-80
2023/07/31 16:08:02;;;;;;;;;;;18.60;99.90;;;;;;4997355;28;20350;-80
2023/07/31 16:10:28;;;;;;;;;;;18.60;99.90;;;;;;5014068;28;19967;-80
2023/07/31 16:12:53;;;;;;;;;;;18.50;99.90;;;;;;4996642;28;19921;-81
2023/07/31 16:15:19;;;;;;;;;;;18.50;99.90;;;;;;5000258;28;19925;-83
2023/07/31 16:17:45;;;;;;;;;;;18.30;99.90;;;;;;5000319;28;19948;-79
2023/07/31 16:20:11;;;;;;;;;;;18.40;99.90;;;;;;4999734;28;19921;-82
2023/07/31 16:22:36;;;;;;;;;;;18.30;99.90;;;;;;5000114;28;19945;-81
2023/07/31 16:25:02;;;;;;;;;;;18.30;99.90;;;;;;5017846;28;20357;-80
2023/07/31 16:27:28;;;;;;;;;;;18.30;99.90;;;;;;5000194;28;19925;-82
2023/07/31 16:29:54;;;;;;;;;;;18.30;99.90;;;;;;5018997;28;19921;-80
2023/07/31 16:32:19;;;;;;;;;;;18.30;99.90;;;;;;4999805;28;20436;-79
2023/07/31 16:34:45;;;;;;;;;;;18.30;99.90;;;;;;5000433;28;19975;-79
2023/07/31 16:37:11;;;;;;;;;;;18.20;99.90;;;;;;4999659;28;19922;-83
2023/07/31 16:39:36;;;;;;;;;;;18.30;99.90;;;;;;5017736;28;19929;-82
2023/07/31 16:42:05;;;;;;;;;;;18.20;99.90;;;;;;4999400;28;19988;-81
2023/07/31 16:44:30;;;;;;;;;;;18.20;99.90;;;;;;4999882;28;19994;-82
2023/07/31 16:46:56;;;;;;;;;;;18.20;99.90;;;;;;5000031;28;19929;-82
2023/07/31 16:49:22;;;;;;;;;;;18.20;99.90;;;;;;4997416;28;19930;-80
2023/07/31 16:51:47;;;;;;;;;;;18.20;99.90;;;;;;4981143;28;19925;-82
2023/07/31 16:54:13;;;;;;;;;;;18.20;99.90;;;;;;4997726;28;19921;-83
2023/07/31 16:56:39;;;;;;;;;;;18.20;99.90;;;;;;4997773;28;19925;-80
2023/07/31 16:59:04;;;;;;;;;;;18.20;99.90;;;;;;4997578;28;19921;-81
2023/07/31 17:01:33;;;;;;;;;;;18.20;99.90;;;;;;4997887;28;20008;-78
2023/07/31 17:03:59;;;;;;;;;;;18.20;99.90;;;;;;4999125;28;20453;-81
2023/07/31 17:06:28;;;;;;;;;;;18.20;99.90;;;;;;4999286;28;19928;-80
2023/07/31 17:08:54;;;;;;;;;;;18.20;99.90;;;;;;5016975;28;20021;-80
2023/07/31 17:11:20;;;;;;;;;;;18.20;99.90;;;;;;4999281;28;19921;-78
2023/07/31 17:13:46;;;;;;;;;;;18.20;99.90;;;;;;4983013;28;19921;-79
2023/07/31 17:16:11;;;;;;;;;;;18.20;99.90;;;;;;4999001;28;19921;-78
2023/07/31 17:18:37;;;;;;;;;;;18.20;99.90;;;;;;4999179;28;19922;-78
2023/07/31 17:21:02;;;;;;;;;;;18.20;99.90;;;;;;4998752;28;19925;-81
2023/07/31 17:23:28;;;;;;;;;;;18.20;99.90;;;;;;4998261;28;20408;-78
2023/07/31 17:25:53;;;;;;;;;;;18.20;99.90;;;;;;4979223;28;19922;-78
2023/07/31 17:28:19;;;;;;;;;;;18.20;99.90;;;;;;4979331;28;19921;-80
2023/07/31 17:30:45;;;;;;;;;;;18.20;99.90;;;;;;4979374;28;19922;-81
2023/07/31 17:33:10;;;;;;;;;;;18.20;99.90;;;;;;4963377;28;20297;-80
2023/07/31 17:35:36;;;;;;;;;;;18.20;99.90;;;;;;4996687;28;20020;-80
2023/07/31 17:38:01;;;;;;;;;;;18.20;99.90;;;;;;4978816;28;19922;-79
2023/07/31 17:40:27;;;;;;;;;;;18.20;99.90;;;;;;4978790;28;19933;-78
2023/07/31 17:42:52;;;;;;;;;;;18.20;99.90;;;;;;4979121;28;19936;-82
2023/07/31 17:45:18;;;;;;;;;;;18.20;99.90;;;;;;4980072;28;19977;-78
2023/07/31 17:47:44;;;;;;;;;;;18.20;99.90;;;;;;4979307;28;20003;-77
2023/07/31 17:50:09;;;;;;;;;;;18.20;99.90;;;;;;4996191;28;20008;-79
2023/07/31 17:52:35;;;;;;;;;;;18.20;99.90;;;;;;4978897;28;20027;-80
2023/07/31 17:55:01;;;;;;;;;;;18.20;99.90;;;;;;4996001;28;19969;-80
2023/07/31 17:57:27;;;;;;;;;;;18.20;99.90;;;;;;4978577;28;19961;-80
2023/07/31 17:59:52;;;;;;;;;;;18.20;99.90;;;;;;4996170;28;19922;-80
2023/07/31 18:02:18;;;;;;;;;;;18.30;99.90;;;;;;4978406;28;20436;-80
2023/07/31 18:04:44;;;;;;;;;;;18.30;99.90;;;;;;4996011;28;19922;-79
2023/07/31 18:07:10;;;;;;;;;;;18.30;99.90;;;;;;4995999;28;19969;-78
2023/07/31 18:09:37;;;;;;;;;;;18.30;99.90;;;;;;4978604;28;19922;-80
2023/07/31 18:12:03;;;;;;;;;;;18.30;99.90;;;;;;4978690;28;19945;-81
2023/07/31 18:14:29;;;;;;;;;;;18.30;99.90;;;;;;4978381;28;20385;-77
2023/07/31 18:16:54;;;;;;;;;;;18.30;99.90;;;;;;4978313;28;19922;-79
2023/07/31 18:19:20;;;;;;;;;;;18.30;99.90;;;;;;4996392;28;19922;-80
2023/07/31 18:21:45;;;;;;;;;;;18.30;99.90;;;;;;4978658;28;19968;-86